createdAt,value
2017-05-19T00:00:24.718Z,22.3
2017-05-19T00:01:27.428Z,22.3
2017-05-19T00:02:30.781Z,22.2
2017-05-19T00:03:33.930Z,22.2
2017-05-19T00:04:36.273Z,22.2
2017-05-19T00:05:39.123Z,22.2
2017-05-19T00:06:41.964Z,22.2
2017-05-19T00:07:44.816Z,22.2
2017-05-19T00:08:48.421Z,22.2
2017-05-19T00:09:50.762Z,22.2
2017-05-19T00:10:54.154Z,22.2
2017-05-19T00:11:56.499Z,22.2
2017-05-19T00:12:59.354Z,22.2
2017-05-19T00:14:02.446Z,22.2
2017-05-19T00:15:05.717Z,22.1
2017-05-19T00:16:07.929Z,22.1
2017-05-19T00:17:11.286Z,22.1
2017-05-19T00:18:13.997Z,22.1
2017-05-19T00:19:17.096Z,22.1
2017-05-19T00:20:19.807Z,22.1
2017-05-19T00:21:22.652Z,22.1
2017-05-19T00:22:25.499Z,22.1
2017-05-19T00:23:28.079Z,22.1
2017-05-19T00:24:31.728Z,22
2017-05-19T00:25:33.936Z,22
2017-05-19T00:26:37.286Z,22
2017-05-19T00:27:40.144Z,22
2017-05-19T00:28:43.412Z,22
2017-05-19T00:29:45.871Z,22
2017-05-19T00:30:48.586Z,22
2017-05-19T00:31:51.434Z,22
2017-05-19T00:32:54.289Z,22
2017-05-19T00:33:57.139Z,22
2017-05-19T00:35:00.291Z,22
2017-05-19T00:36:03.070Z,22
2017-05-19T00:37:05.921Z,22
2017-05-19T00:38:08.496Z,22
2017-05-19T00:39:11.849Z,21.9
2017-05-19T00:41:17.916Z,21.9
2017-05-19T00:42:19.991Z,21.9
2017-05-19T00:43:23.402Z,21.8
2017-05-19T00:44:26.246Z,21.8
2017-05-19T00:45:28.962Z,21.8
2017-05-19T00:46:32.062Z,21.8
2017-05-19T00:47:34.906Z,21.8
2017-05-19T00:49:40.666Z,21.8
2017-05-19T00:50:43.510Z,21.8
2017-05-19T00:51:46.473Z,21.8
2017-05-19T00:52:49.222Z,21.8
2017-05-19T00:53:52.069Z,21.7
2017-05-19T00:54:54.917Z,21.6
2017-05-19T00:55:57.775Z,21.7
2017-05-19T00:57:00.924Z,21.7
2017-05-19T00:58:03.633Z,21.7
2017-05-19T00:59:06.346Z,21.7
2017-05-19T01:00:09.752Z,21.7
2017-05-19T01:01:12.509Z,21.7
2017-05-19T01:02:14.966Z,21.7
2017-05-19T01:03:17.809Z,21.6
2017-05-19T01:04:21.031Z,21.6
2017-05-19T01:05:23.881Z,21.6
2017-05-19T01:06:26.725Z,21.6
2017-05-19T01:07:29.826Z,21.6
2017-05-19T01:08:32.542Z,21.6
2017-05-19T01:10:38.306Z,21.6
2017-05-19T01:11:41.150Z,21.6
2017-05-19T01:12:44.261Z,21.6
2017-05-19T01:13:46.607Z,21.6
2017-05-19T01:14:49.991Z,21.6
2017-05-19T01:15:52.336Z,21.6
2017-05-19T01:16:55.181Z,21.6
2017-05-19T01:17:58.278Z,21.5
2017-05-19T01:20:03.905Z,21.6
2017-05-19T01:21:07.313Z,21.6
2017-05-19T01:22:09.256Z,21.5
2017-05-19T01:23:12.865Z,21.5
2017-05-19T01:24:15.717Z,21.6
2017-05-19T01:25:18.355Z,21.6
2017-05-19T01:26:20.932Z,21.5
2017-05-19T01:27:24.144Z,21.5
2017-05-19T01:28:27.246Z,21.5
2017-05-19T01:29:29.956Z,21.6
2017-05-19T01:30:32.800Z,21.5
2017-05-19T01:31:35.644Z,21.5
2017-05-19T01:32:38.494Z,21.5
2017-05-19T01:33:41.589Z,21.5
2017-05-19T01:34:44.436Z,21.5
2017-05-19T01:35:47.147Z,21.5
2017-05-19T01:36:49.990Z,21.5
2017-05-19T01:37:52.833Z,21.5
2017-05-19T01:39:58.841Z,21.5
2017-05-19T01:41:01.692Z,21.5
2017-05-19T01:43:07.451Z,21.5
2017-05-19T01:44:10.166Z,21.5
2017-05-19T01:45:13.719Z,21.5
2017-05-19T01:46:15.929Z,21.5
2017-05-19T01:47:18.773Z,21.5
2017-05-19T01:48:21.617Z,21.4
2017-05-19T01:49:24.328Z,21.4
2017-05-19T01:50:27.796Z,21.4
2017-05-19T01:51:30.368Z,21.4
2017-05-19T01:52:33.213Z,21.4
2017-05-19T01:53:36.627Z,21.3
2017-05-19T01:54:38.971Z,21.3
2017-05-19T01:55:42.067Z,21.4
2017-05-19T01:56:44.408Z,21.4
2017-05-19T01:57:47.755Z,21.4
2017-05-19T01:58:50.601Z,21.3
2017-05-19T01:59:53.451Z,21.3
2017-05-19T02:00:56.597Z,21.3
2017-05-19T02:01:58.992Z,21.3
2017-05-19T02:03:01.837Z,21.3
2017-05-19T02:05:07.594Z,21.3
2017-05-19T02:06:10.554Z,21.3
2017-05-19T02:07:13.398Z,21.2
2017-05-19T02:08:16.244Z,21.2
2017-05-19T02:09:19.086Z,21.2
2017-05-19T02:10:21.794Z,21.2
2017-05-19T02:11:24.898Z,21.1
2017-05-19T02:12:28.305Z,21.1
2017-05-19T02:13:30.653Z,21.1
2017-05-19T02:14:33.501Z,21.1
2017-05-19T02:15:36.346Z,21.1
2017-05-19T02:16:39.444Z,21.1
2017-05-19T02:17:42.290Z,21.1
2017-05-19T02:18:45.139Z,21.1
2017-05-19T02:19:47.991Z,21.1
2017-05-19T02:20:50.839Z,21.1
2017-05-19T02:21:53.933Z,21.1
2017-05-19T02:22:56.284Z,21.1
2017-05-19T02:23:59.132Z,21.1
2017-05-19T02:25:02.030Z,21.1
2017-05-19T02:26:04.874Z,21.1
2017-05-19T02:27:07.748Z,21.1
2017-05-19T02:28:10.328Z,21.1
2017-05-19T02:29:13.673Z,21
2017-05-19T02:30:16.384Z,21
2017-05-19T02:31:19.604Z,21
2017-05-19T02:32:22.700Z,21
2017-05-19T02:33:25.470Z,21
2017-05-19T02:34:27.820Z,21
2017-05-19T02:35:30.666Z,21
2017-05-19T02:36:33.520Z,21
2017-05-19T02:37:37.169Z,21
2017-05-19T02:38:39.377Z,21
2017-05-19T02:39:42.230Z,21
2017-05-19T02:40:45.073Z,20.9
2017-05-19T02:41:47.922Z,20.9
2017-05-19T02:42:51.024Z,20.9
2017-05-19T02:43:53.873Z,20.9
2017-05-19T02:44:56.587Z,20.9
2017-05-19T02:45:59.491Z,20.9
2017-05-19T02:47:02.337Z,20.9
2017-05-19T02:48:05.434Z,20.8
2017-05-19T02:49:08.078Z,20.8
2017-05-19T02:50:10.923Z,20.8
2017-05-19T02:51:13.364Z,20.8
2017-05-19T02:52:16.577Z,20.8
2017-05-19T02:53:19.677Z,20.8
2017-05-19T02:54:22.390Z,20.8
2017-05-19T02:55:25.238Z,20.8
2017-05-19T02:56:28.362Z,20.8
2017-05-19T02:57:31.072Z,20.8
2017-05-19T02:58:34.032Z,20.8
2017-05-19T02:59:36.878Z,20.8
2017-05-19T03:00:39.727Z,20.7
2017-05-19T03:01:42.632Z,20.7
2017-05-19T03:02:45.479Z,20.7
2017-05-19T03:03:48.631Z,20.7
2017-05-19T03:04:50.837Z,20.7
2017-05-19T03:05:54.241Z,20.7
2017-05-19T03:07:59.513Z,20.7
2017-05-19T03:09:03.222Z,20.6
2017-05-19T03:10:05.571Z,20.6
2017-05-19T03:12:10.696Z,20.6
2017-05-19T03:13:13.780Z,20.6
2017-05-19T03:14:16.980Z,20.6
2017-05-19T03:15:19.692Z,20.6
2017-05-19T03:16:22.539Z,20.6
2017-05-19T03:17:25.387Z,20.6
2017-05-19T03:18:27.967Z,20.5
2017-05-19T03:19:31.064Z,20.5
2017-05-19T03:20:33.773Z,20.5
2017-05-19T03:21:36.627Z,20.5
2017-05-19T03:22:39.476Z,20.5
2017-05-19T03:23:42.332Z,20.5
2017-05-19T03:24:45.428Z,20.5
2017-05-19T03:25:48.272Z,20.5
2017-05-19T03:26:51.115Z,20.5
2017-05-19T03:27:53.965Z,20.5
2017-05-19T03:28:56.810Z,20.5
2017-05-19T03:29:59.905Z,20.5
2017-05-19T03:31:02.248Z,20.5
2017-05-19T03:32:05.663Z,20.5
2017-05-19T03:33:08.252Z,20.5
2017-05-19T03:34:10.833Z,20.5
2017-05-19T03:35:13.662Z,20.5
2017-05-19T03:37:19.655Z,20.5
2017-05-19T03:38:22.501Z,20.5
2017-05-19T03:39:25.350Z,20.5
2017-05-19T03:40:28.315Z,20.5
2017-05-19T03:41:31.163Z,20.5
2017-05-19T03:42:34.007Z,20.5
2017-05-19T03:43:36.859Z,20.5
2017-05-19T03:44:39.706Z,20.5
2017-05-19T03:45:42.803Z,20.5
2017-05-19T03:46:45.151Z,20.5
2017-05-19T03:47:47.993Z,20.5
2017-05-19T03:48:50.839Z,20.4
2017-05-19T03:49:53.682Z,20.4
2017-05-19T03:50:56.830Z,20.4
2017-05-19T03:51:59.677Z,20.4
2017-05-19T03:53:02.526Z,20.4
2017-05-19T03:54:05.374Z,20.4
2017-05-19T03:55:08.079Z,20.4
2017-05-19T03:56:10.906Z,20.4
2017-05-19T03:57:13.749Z,20.4
2017-05-19T03:58:16.592Z,20.4
2017-05-19T03:59:19.435Z,20.4
2017-05-19T04:00:22.279Z,20.4
2017-05-19T04:01:25.377Z,20.4
2017-05-19T04:02:28.086Z,20.4
2017-05-19T04:03:30.794Z,20.5
2017-05-19T04:04:33.641Z,20.4
2017-05-19T04:05:36.487Z,20.5
2017-05-19T04:06:40.087Z,20.5
2017-05-19T04:07:42.430Z,20.5
2017-05-19T04:08:45.281Z,20.5
2017-05-19T04:09:48.126Z,20.5
2017-05-19T04:10:51.528Z,20.5
2017-05-19T04:11:54.172Z,20.5
2017-05-19T04:12:57.022Z,20.5
2017-05-19T04:13:59.872Z,20.5
2017-05-19T04:15:02.728Z,20.4
2017-05-19T04:16:05.441Z,20.4
2017-05-19T04:17:08.271Z,20.4
2017-05-19T04:19:13.895Z,20.3
2017-05-19T04:20:17.115Z,20.3
2017-05-19T04:21:19.961Z,20.3
2017-05-19T04:22:23.110Z,20.3
2017-05-19T04:23:25.458Z,20.3
2017-05-19T04:24:28.178Z,20.4
2017-05-19T04:25:31.528Z,20.4
2017-05-19T04:26:34.372Z,20.5
2017-05-19T04:27:37.471Z,20.5
2017-05-19T04:28:39.820Z,20.5
2017-05-19T04:29:42.667Z,20.5
2017-05-19T04:30:45.513Z,20.5
2017-05-19T04:31:48.518Z,20.6
2017-05-19T04:32:51.982Z,20.6
2017-05-19T04:33:54.328Z,20.6
2017-05-19T04:34:57.177Z,20.6
2017-05-19T04:36:00.026Z,20.6
2017-05-19T04:37:02.872Z,20.6
2017-05-19T04:38:05.902Z,20.6
2017-05-19T04:39:08.677Z,20.6
2017-05-19T04:40:11.936Z,20.7
2017-05-19T04:41:14.657Z,20.7
2017-05-19T04:42:17.372Z,20.7
2017-05-19T04:43:20.520Z,20.7
2017-05-19T04:44:23.369Z,20.7
2017-05-19T04:45:26.217Z,20.7
2017-05-19T04:46:29.062Z,20.7
2017-05-19T04:47:32.471Z,20.7
2017-05-19T04:48:35.435Z,20.7
2017-05-19T04:49:38.188Z,20.7
2017-05-19T04:50:40.529Z,20.7
2017-05-19T04:51:43.875Z,20.8
2017-05-19T04:53:49.884Z,20.8
2017-05-19T04:54:52.289Z,20.8
2017-05-19T04:55:55.706Z,20.8
2017-05-19T04:56:58.047Z,20.8
2017-05-19T04:58:01.394Z,20.8
2017-05-19T04:59:04.501Z,20.8
2017-05-19T05:00:06.711Z,20.8
2017-05-19T05:03:15.885Z,20.8
2017-05-19T05:04:19.036Z,20.8
2017-05-19T05:05:21.748Z,20.8
2017-05-19T05:06:24.456Z,20.8
2017-05-19T05:07:27.670Z,20.9
2017-05-19T05:08:30.453Z,20.9
2017-05-19T05:09:33.555Z,20.9
2017-05-19T05:10:36.398Z,20.9
2017-05-19T05:11:39.239Z,21
2017-05-19T05:12:42.088Z,21
2017-05-19T05:13:45.497Z,21
2017-05-19T05:14:48.146Z,21
2017-05-19T05:15:50.992Z,21
2017-05-19T05:16:53.837Z,21
2017-05-19T05:17:56.553Z,21
2017-05-19T05:18:59.897Z,21
2017-05-19T05:20:02.994Z,21
2017-05-19T05:21:05.856Z,21
2017-05-19T05:22:08.570Z,21
2017-05-19T05:23:11.789Z,21
2017-05-19T05:24:14.507Z,21
2017-05-19T05:25:17.606Z,21
2017-05-19T05:26:20.451Z,21
2017-05-19T05:27:23.313Z,21
2017-05-19T05:28:26.024Z,21
2017-05-19T05:29:29.241Z,21
2017-05-19T05:30:32.343Z,21
2017-05-19T05:31:35.190Z,21
2017-05-19T05:32:38.030Z,21
2017-05-19T05:33:40.876Z,21
2017-05-19T05:34:43.731Z,21
2017-05-19T05:35:47.335Z,21
2017-05-19T05:36:49.545Z,21
2017-05-19T05:37:52.765Z,21
2017-05-19T05:38:55.612Z,21
2017-05-19T05:39:58.466Z,21
2017-05-19T05:41:02.066Z,21
2017-05-19T05:42:04.781Z,21
2017-05-19T05:43:07.631Z,21
2017-05-19T05:44:10.215Z,21
2017-05-19T05:45:13.564Z,21
2017-05-19T05:46:16.526Z,21.1
2017-05-19T05:47:19.235Z,21.1
2017-05-19T05:48:22.080Z,21.1
2017-05-19T05:49:25.167Z,21.1
2017-05-19T05:50:28.016Z,21.1
2017-05-19T05:51:31.536Z,21.1
2017-05-19T05:52:34.384Z,21.1
2017-05-19T05:53:37.235Z,21.1
2017-05-19T05:54:40.082Z,21.1
2017-05-19T05:55:42.933Z,21.1
2017-05-19T05:56:45.946Z,21.1
2017-05-19T05:57:48.797Z,21.2
2017-05-19T05:58:51.642Z,21.2
2017-05-19T05:59:55.002Z,21.2
2017-05-19T06:00:58.418Z,21.2
2017-05-19T06:02:01.290Z,21.2
2017-05-19T06:03:03.633Z,21.2
2017-05-19T06:04:07.046Z,21.2
2017-05-19T06:05:09.900Z,21.3
2017-05-19T06:06:12.615Z,21.2
2017-05-19T06:07:15.762Z,21.2
2017-05-19T06:08:18.610Z,21.3
2017-05-19T06:09:21.186Z,21.3
2017-05-19T06:10:24.398Z,21.3
2017-05-19T06:11:27.241Z,21.3
2017-05-19T06:12:30.709Z,21.3
2017-05-19T06:13:33.553Z,21.3
2017-05-19T06:14:36.395Z,21.3
2017-05-19T06:15:39.244Z,21.3
2017-05-19T06:16:42.090Z,21.3
2017-05-19T06:17:45.740Z,21.3
2017-05-19T06:18:48.084Z,21.3
2017-05-19T06:19:51.438Z,21.3
2017-05-19T06:20:54.282Z,21.3
2017-05-19T06:21:57.127Z,21.3
2017-05-19T06:23:00.221Z,21.3
2017-05-19T06:24:03.071Z,21.3
2017-05-19T06:25:05.916Z,21.3
2017-05-19T06:26:09.133Z,21.3
2017-05-19T06:27:11.712Z,21.4
2017-05-19T06:28:15.161Z,21.4
2017-05-19T06:29:18.017Z,21.4
2017-05-19T06:30:20.863Z,21.4
2017-05-19T06:31:24.079Z,21.4
2017-05-19T06:32:26.925Z,21.4
2017-05-19T06:33:30.023Z,21.4
2017-05-19T06:34:32.868Z,21.5
2017-05-19T06:35:35.762Z,21.5
2017-05-19T06:36:39.105Z,21.5
2017-05-19T06:37:41.948Z,21.5
2017-05-19T06:38:45.052Z,21.5
2017-05-19T06:39:47.904Z,21.5
2017-05-19T06:40:50.751Z,21.5
2017-05-19T06:41:53.600Z,21.5
2017-05-19T06:42:56.510Z,21.6
2017-05-19T06:44:00.124Z,21.6
2017-05-19T06:45:02.470Z,21.6
2017-05-19T06:46:05.698Z,21.6
2017-05-19T06:47:08.406Z,21.6
2017-05-19T06:48:11.623Z,21.6
2017-05-19T06:49:15.093Z,21.6
2017-05-19T06:50:18.423Z,21.6
2017-05-19T06:51:20.766Z,21.6
2017-05-19T06:52:23.619Z,21.6
2017-05-19T06:53:26.462Z,21.6
2017-05-19T06:54:29.659Z,21.6
2017-05-19T06:55:32.235Z,21.7
2017-05-19T06:56:35.453Z,21.7
2017-05-19T06:57:38.662Z,21.7
2017-05-19T06:58:41.377Z,21.7
2017-05-19T06:59:44.900Z,21.8
2017-05-19T07:00:47.753Z,21.8
2017-05-19T07:01:51.006Z,21.8
2017-05-19T07:02:53.352Z,21.8
2017-05-19T07:03:56.754Z,21.8
2017-05-19T07:04:59.723Z,21.8
2017-05-19T07:06:02.305Z,21.8
2017-05-19T07:08:08.308Z,21.8
2017-05-19T07:09:11.656Z,21.9
2017-05-19T07:10:14.537Z,21.9
2017-05-19T07:11:17.625Z,21.9
2017-05-19T07:12:20.335Z,21.9
2017-05-19T07:13:23.546Z,21.9
2017-05-19T07:14:26.178Z,22
2017-05-19T07:15:29.641Z,22
2017-05-19T07:16:32.921Z,22
2017-05-19T07:17:35.637Z,22
2017-05-19T07:18:38.482Z,22
2017-05-19T07:19:41.841Z,22
2017-05-19T07:20:44.942Z,22
2017-05-19T07:21:47.802Z,22
2017-05-19T07:22:50.656Z,22
2017-05-19T07:23:53.508Z,22.1
2017-05-19T07:24:56.860Z,22
2017-05-19T07:25:59.823Z,22
2017-05-19T07:27:02.670Z,22
2017-05-19T07:28:05.633Z,22
2017-05-19T07:29:08.487Z,22
2017-05-19T07:30:11.704Z,22
2017-05-19T07:31:14.671Z,22
2017-05-19T07:32:17.755Z,22
2017-05-19T07:33:20.602Z,22
2017-05-19T07:34:24.366Z,22
2017-05-19T07:35:26.572Z,22
2017-05-19T07:36:30.038Z,22
2017-05-19T07:37:32.755Z,22
2017-05-19T07:38:35.605Z,22.1
2017-05-19T07:39:38.959Z,22.1
2017-05-19T07:40:41.807Z,22.1
2017-05-19T07:42:47.821Z,22.1
2017-05-19T07:43:50.304Z,22.1
2017-05-19T07:44:53.656Z,22.1
2017-05-19T07:45:57.077Z,22.1
2017-05-19T07:46:59.920Z,22.1
2017-05-19T07:48:02.881Z,22.1
2017-05-19T07:49:05.592Z,22.1
2017-05-19T07:50:08.812Z,22.2
2017-05-19T07:51:11.654Z,22.2
2017-05-19T07:52:14.868Z,22.3
2017-05-19T07:53:18.453Z,22.2
2017-05-19T07:54:20.805Z,22.2
2017-05-19T07:55:24.152Z,22.2
2017-05-19T07:56:26.870Z,22.2
2017-05-19T07:57:29.722Z,22.2
2017-05-19T07:58:33.057Z,22.3
2017-05-19T07:59:35.901Z,22.3
2017-05-19T08:00:38.754Z,22.3
2017-05-19T08:01:41.836Z,22.4
2017-05-19T08:02:45.192Z,22.4
2017-05-19T08:03:48.295Z,22.4
2017-05-19T08:04:51.202Z,22.5
2017-05-19T08:05:54.052Z,22.5
2017-05-19T08:06:56.763Z,22.5
2017-05-19T08:08:00.670Z,22.5
2017-05-19T08:10:06.555Z,22.5
2017-05-19T08:11:09.268Z,22.5
2017-05-19T08:12:12.110Z,22.6
2017-05-19T08:13:15.097Z,22.6
2017-05-19T08:14:18.318Z,22.6
2017-05-19T08:15:21.413Z,22.6
2017-05-19T08:16:24.256Z,22.6
2017-05-19T08:17:27.104Z,22.6
2017-05-19T08:18:30.185Z,22.6
2017-05-19T08:19:33.408Z,22.6
2017-05-19T08:20:36.916Z,22.7
2017-05-19T08:21:39.824Z,22.7
2017-05-19T08:22:42.672Z,22.8
2017-05-19T08:23:45.528Z,22.8
2017-05-19T08:24:48.746Z,22.8
2017-05-19T08:25:51.895Z,22.8
2017-05-19T08:26:54.610Z,22.8
2017-05-19T08:27:57.458Z,22.8
2017-05-19T08:29:01.378Z,22.9
2017-05-19T08:30:03.586Z,22.9
2017-05-19T08:31:07.109Z,22.9
2017-05-19T08:32:09.745Z,22.9
2017-05-19T08:33:12.835Z,22.9
2017-05-19T08:34:15.418Z,22.9
2017-05-19T08:35:19.135Z,23
2017-05-19T08:36:22.278Z,23
2017-05-19T08:37:25.120Z,23
2017-05-19T08:38:27.982Z,23
2017-05-19T08:41:37.414Z,23
2017-05-19T08:43:43.172Z,23.1
2017-05-19T08:44:46.387Z,23.1
2017-05-19T08:45:49.237Z,23.1
2017-05-19T08:46:52.906Z,23.1
2017-05-19T08:47:55.750Z,23.1
2017-05-19T08:48:58.465Z,23.1
2017-05-19T08:50:01.812Z,23.1
2017-05-19T08:51:04.657Z,23.1
2017-05-19T08:52:07.672Z,23.1
2017-05-19T08:53:11.023Z,23.1
2017-05-19T08:54:13.598Z,23.1
2017-05-19T08:55:16.814Z,23.1
2017-05-19T08:56:20.162Z,23.2
2017-05-19T08:57:23.725Z,23.2
2017-05-19T08:58:25.934Z,23.2
2017-05-19T08:59:29.146Z,23.2
2017-05-19T09:00:31.995Z,23.2
2017-05-19T09:01:35.344Z,23.2
2017-05-19T09:02:38.439Z,23.3
2017-05-19T09:03:41.285Z,23.3
2017-05-19T09:04:44.638Z,23.3
2017-05-19T09:05:47.483Z,23.3
2017-05-19T09:06:50.566Z,23.3
2017-05-19T09:07:53.664Z,23.3
2017-05-19T09:08:56.383Z,23.3
2017-05-19T09:09:59.737Z,23.3
2017-05-19T09:11:02.585Z,23.3
2017-05-19T09:12:05.668Z,23.3
2017-05-19T09:13:09.322Z,23.3
2017-05-19T09:14:12.171Z,23.3
2017-05-19T09:15:14.882Z,23.3
2017-05-19T09:16:17.964Z,23.3
2017-05-19T09:17:21.318Z,23.4
2017-05-19T09:18:24.420Z,23.4
2017-05-19T09:19:27.200Z,23.4
2017-05-19T09:20:30.423Z,23.4
2017-05-19T09:21:33.142Z,23.5
2017-05-19T09:22:36.221Z,23.5
2017-05-19T09:23:39.875Z,23.5
2017-05-19T09:24:42.720Z,23.5
2017-05-19T09:25:45.566Z,23.6
2017-05-19T09:26:48.918Z,23.6
2017-05-19T09:27:51.764Z,23.6
2017-05-19T09:28:54.865Z,23.6
2017-05-19T09:29:57.712Z,23.6
2017-05-19T09:31:01.610Z,23.6
2017-05-19T09:32:03.954Z,23.6
2017-05-19T09:33:07.304Z,23.6
2017-05-19T09:34:10.453Z,23.6
2017-05-19T09:35:13.300Z,23.6
2017-05-19T09:36:16.141Z,23.6
2017-05-19T09:37:19.353Z,23.6
2017-05-19T09:38:22.199Z,23.6
2017-05-19T09:39:25.851Z,23.6
2017-05-19T09:40:28.428Z,23.6
2017-05-19T09:41:31.777Z,23.6
2017-05-19T09:43:37.536Z,23.6
2017-05-19T09:44:41.193Z,23.6
2017-05-19T09:45:44.048Z,23.6
2017-05-19T09:46:46.892Z,23.6
2017-05-19T09:47:50.111Z,23.6
2017-05-19T09:48:53.519Z,23.6
2017-05-19T09:49:56.481Z,23.7
2017-05-19T09:50:59.330Z,23.7
2017-05-19T09:52:02.049Z,23.7
2017-05-19T09:53:05.128Z,23.7
2017-05-19T09:54:08.478Z,23.7
2017-05-19T09:55:12.201Z,23.7
2017-05-19T09:56:14.341Z,23.7
2017-05-19T09:57:17.558Z,23.7
2017-05-19T09:58:21.322Z,23.7
2017-05-19T09:59:23.664Z,23.7
2017-05-19T10:00:27.845Z,23.7
2017-05-19T10:01:30.191Z,23.8
2017-05-19T10:02:32.899Z,23.8
2017-05-19T10:03:36.115Z,23.8
2017-05-19T10:04:39.463Z,23.9
2017-05-19T10:05:42.565Z,23.9
2017-05-19T10:06:45.410Z,23.9
2017-05-19T10:07:48.256Z,24
2017-05-19T10:08:51.611Z,23.9
2017-05-19T10:09:54.458Z,23.9
2017-05-19T10:10:58.110Z,23.9
2017-05-19T10:12:00.956Z,23.9
2017-05-19T10:13:03.804Z,23.9
2017-05-19T10:14:06.648Z,23.8
2017-05-19T10:15:09.997Z,23.8
2017-05-19T10:16:12.878Z,23.8
2017-05-19T10:17:16.228Z,23.8
2017-05-19T10:18:19.003Z,23.9
2017-05-19T10:19:22.088Z,23.8
2017-05-19T10:20:25.442Z,23.8
2017-05-19T10:21:28.386Z,23.9
2017-05-19T10:22:31.098Z,23.9
2017-05-19T10:23:34.445Z,23.9
2017-05-19T10:24:37.856Z,24
2017-05-19T10:25:40.701Z,23.9
2017-05-19T10:26:44.365Z,24
2017-05-19T10:27:46.708Z,24
2017-05-19T10:28:49.555Z,24
2017-05-19T10:29:52.904Z,24
2017-05-19T10:30:55.746Z,24
2017-05-19T10:31:58.853Z,24
2017-05-19T10:33:02.109Z,24
2017-05-19T10:34:04.958Z,24
2017-05-19T10:35:07.675Z,24
2017-05-19T10:36:10.888Z,24
2017-05-19T10:37:14.404Z,24
2017-05-19T10:38:17.114Z,24
2017-05-19T10:39:19.830Z,24
2017-05-19T10:40:23.181Z,24
2017-05-19T10:41:26.026Z,24
2017-05-19T10:42:29.361Z,24
2017-05-19T10:43:32.070Z,24
2017-05-19T10:44:35.149Z,24.1
2017-05-19T10:45:38.367Z,24.1
2017-05-19T10:48:48.277Z,24.1
2017-05-19T10:49:50.494Z,24.1
2017-05-19T10:50:53.342Z,24.1
2017-05-19T10:51:56.692Z,24
2017-05-19T10:52:59.539Z,24.1
2017-05-19T10:54:03.056Z,24.1
2017-05-19T10:55:05.771Z,24.1
2017-05-19T10:56:08.620Z,24.1
2017-05-19T10:57:11.836Z,24.1
2017-05-19T10:58:14.550Z,24.1
2017-05-19T10:59:18.071Z,24.1
2017-05-19T11:00:21.386Z,24.1
2017-05-19T11:01:23.724Z,24.1
2017-05-19T11:02:26.939Z,24.1
2017-05-19T11:03:29.653Z,24.2
2017-05-19T11:04:32.990Z,24.2
2017-05-19T11:05:36.395Z,24.1
2017-05-19T11:06:39.239Z,24.1
2017-05-19T11:07:41.948Z,24.1
2017-05-19T11:08:45.241Z,24.1
2017-05-19T11:09:48.204Z,24.1
2017-05-19T11:10:51.287Z,24.1
2017-05-19T11:11:53.999Z,24.1
2017-05-19T11:12:57.785Z,24.1
2017-05-19T11:14:00.502Z,24.1
2017-05-19T11:15:03.600Z,24.2
2017-05-19T11:16:06.178Z,24.2
2017-05-19T11:17:09.393Z,24.2
2017-05-19T11:18:12.104Z,24.2
2017-05-19T11:19:15.181Z,24.3
2017-05-19T11:20:18.522Z,24.2
2017-05-19T11:21:21.370Z,24.2
2017-05-19T11:22:24.717Z,24.2
2017-05-19T11:23:27.566Z,24.3
2017-05-19T11:24:30.412Z,24.3
2017-05-19T11:25:34.066Z,24.3
2017-05-19T11:26:36.646Z,24.3
2017-05-19T11:27:39.731Z,24.3
2017-05-19T11:28:42.585Z,24.3
2017-05-19T11:29:45.936Z,24.3
2017-05-19T11:30:48.899Z,24.3
2017-05-19T11:31:51.611Z,24.3
2017-05-19T11:32:54.961Z,24.3
2017-05-19T11:33:57.811Z,24.3
2017-05-19T11:35:01.162Z,24.3
2017-05-19T11:36:04.262Z,24.3
2017-05-19T11:37:07.111Z,24.3
2017-05-19T11:38:09.957Z,24.3
2017-05-19T11:39:13.181Z,24.3
2017-05-19T11:40:15.907Z,24.3
2017-05-19T11:41:19.563Z,24.4
2017-05-19T11:42:22.146Z,24.4
2017-05-19T11:43:24.994Z,24.4
2017-05-19T11:44:28.217Z,24.4
2017-05-19T11:45:30.925Z,24.4
2017-05-19T11:46:34.258Z,24.4
2017-05-19T11:47:37.103Z,24.4
2017-05-19T11:48:40.316Z,24.4
2017-05-19T11:49:43.029Z,24.4
2017-05-19T11:50:46.247Z,24.4
2017-05-19T11:51:49.857Z,24.4
2017-05-19T11:52:52.200Z,24.4
2017-05-19T11:53:55.479Z,24.4
2017-05-19T11:56:01.238Z,24.5
2017-05-19T11:57:04.842Z,24.5
2017-05-19T11:58:07.687Z,24.5
2017-05-19T11:59:10.403Z,24.5
2017-05-19T12:00:13.754Z,24.5
2017-05-19T12:01:16.526Z,24.5
2017-05-19T12:02:19.497Z,24.5
2017-05-19T12:04:25.631Z,24.6
2017-05-19T12:05:28.477Z,24.6
2017-05-19T12:06:31.832Z,24.6
2017-05-19T12:07:34.793Z,24.6
2017-05-19T12:08:37.643Z,24.6
2017-05-19T12:09:40.734Z,24.7
2017-05-19T12:10:44.085Z,24.7
2017-05-19T12:11:46.934Z,24.8
2017-05-19T12:12:49.966Z,24.8
2017-05-19T12:13:52.807Z,24.8
2017-05-19T12:14:56.160Z,24.8
2017-05-19T12:15:58.875Z,24.8
2017-05-19T12:17:02.222Z,24.8
2017-05-19T12:18:05.321Z,24.9
2017-05-19T12:19:07.964Z,24.8
2017-05-19T12:20:11.247Z,24.8
2017-05-19T12:21:14.082Z,24.8
2017-05-19T12:22:17.304Z,24.8
2017-05-19T12:23:20.218Z,24.8
2017-05-19T12:24:23.574Z,24.8
2017-05-19T12:25:26.414Z,24.8
2017-05-19T12:26:29.253Z,24.8
2017-05-19T12:27:32.337Z,24.8
2017-05-19T12:28:35.862Z,24.8
2017-05-19T12:29:38.711Z,24.7
2017-05-19T12:30:41.557Z,24.8
2017-05-19T12:31:44.405Z,24.8
2017-05-19T12:32:47.752Z,24.8
2017-05-19T12:33:50.634Z,24.8
2017-05-19T12:34:53.486Z,24.9
2017-05-19T12:35:56.838Z,24.9
2017-05-19T12:36:59.683Z,24.9
2017-05-19T12:38:03.034Z,25
2017-05-19T12:39:06.047Z,24.9
2017-05-19T12:40:08.757Z,24.9
2017-05-19T12:41:12.681Z,24.9
2017-05-19T12:42:15.025Z,24.9
2017-05-19T12:43:17.886Z,24.9
2017-05-19T12:44:21.486Z,24.9
2017-05-19T12:45:24.332Z,24.9
2017-05-19T12:46:27.177Z,24.9
2017-05-19T12:47:30.024Z,24.9
2017-05-19T12:48:33.932Z,24.9
2017-05-19T12:49:36.391Z,24.9
2017-05-19T12:50:39.098Z,24.9
2017-05-19T12:51:42.448Z,24.9
2017-05-19T12:52:45.158Z,24.9
2017-05-19T12:53:48.378Z,24.9
2017-05-19T12:54:51.852Z,24.9
2017-05-19T12:55:54.424Z,25
2017-05-19T12:56:57.773Z,25
2017-05-19T12:58:00.618Z,25
2017-05-19T12:59:03.331Z,25.1
2017-05-19T13:00:06.990Z,25.1
2017-05-19T13:01:09.847Z,25.1
2017-05-19T13:02:13.261Z,25.1
2017-05-19T13:03:16.107Z,25.2
2017-05-19T13:04:18.681Z,25.1
2017-05-19T13:05:22.287Z,25.1
2017-05-19T13:06:25.139Z,25.1
2017-05-19T13:07:27.906Z,25.1
2017-05-19T13:08:31.258Z,25.1
2017-05-19T13:09:34.674Z,25.1
2017-05-19T13:10:37.271Z,25.1
2017-05-19T13:11:40.116Z,25.2
2017-05-19T13:12:43.214Z,25.2
2017-05-19T13:13:46.431Z,25.1
2017-05-19T13:14:49.012Z,25.1
2017-05-19T13:15:52.482Z,25.1
2017-05-19T13:16:55.335Z,25.2
2017-05-19T13:17:58.683Z,25.3
2017-05-19T13:19:01.458Z,25.2
2017-05-19T13:20:04.818Z,25.2
2017-05-19T13:21:07.782Z,25.2
2017-05-19T13:23:13.926Z,25.3
2017-05-19T13:24:16.786Z,25.3
2017-05-19T13:25:19.529Z,25.3
2017-05-19T13:26:22.999Z,25.3
2017-05-19T13:27:25.711Z,25.3
2017-05-19T13:28:28.925Z,25.3
2017-05-19T13:29:32.549Z,25.3
2017-05-19T13:30:34.820Z,25.3
2017-05-19T13:31:38.150Z,25.3
2017-05-19T13:32:41.553Z,25.3
2017-05-19T13:33:44.406Z,25.3
2017-05-19T13:34:47.190Z,25.3
2017-05-19T13:35:50.542Z,25.3
2017-05-19T13:36:53.687Z,25.3
2017-05-19T13:37:56.532Z,25.4
2017-05-19T13:38:59.387Z,25.4
2017-05-19T13:40:02.601Z,25.4
2017-05-19T13:41:05.316Z,25.5
2017-05-19T13:42:08.924Z,25.5
2017-05-19T13:43:11.789Z,25.5
2017-05-19T13:44:14.502Z,25.4
2017-05-19T13:45:17.853Z,25.4
2017-05-19T13:46:20.699Z,25.4
2017-05-19T13:47:24.210Z,25.4
2017-05-19T13:48:26.853Z,25.4
2017-05-19T13:49:29.436Z,25.4
2017-05-19T13:50:32.780Z,25.4
2017-05-19T13:51:35.995Z,25.5
2017-05-19T13:52:38.955Z,25.5
2017-05-19T13:53:42.309Z,25.4
2017-05-19T13:54:45.213Z,25.5
2017-05-19T13:55:47.936Z,25.5
2017-05-19T13:56:51.157Z,25.5
2017-05-19T13:57:54.763Z,25.5
2017-05-19T13:58:57.105Z,25.5
2017-05-19T14:00:00.330Z,25.5
2017-05-19T14:02:06.596Z,25.5
2017-05-19T14:03:09.623Z,25.5
2017-05-19T14:04:12.469Z,25.6
2017-05-19T14:05:15.820Z,25.6
2017-05-19T14:06:18.532Z,25.6
2017-05-19T14:07:21.883Z,25.6
2017-05-19T14:08:24.848Z,25.6
2017-05-19T14:09:28.071Z,25.6
2017-05-19T14:10:30.932Z,25.6
2017-05-19T14:11:34.338Z,25.6
2017-05-19T14:12:37.190Z,25.6
2017-05-19T14:13:40.294Z,25.6
2017-05-19T14:14:43.009Z,25.6
2017-05-19T14:15:46.360Z,25.6
2017-05-19T14:17:52.492Z,25.7
2017-05-19T14:18:55.587Z,25.7
2017-05-19T14:19:59.013Z,25.8
2017-05-19T14:21:01.228Z,25.8
2017-05-19T14:22:04.440Z,25.8
2017-05-19T14:23:07.656Z,25.7
2017-05-19T14:24:10.757Z,25.8
2017-05-19T14:25:13.607Z,25.8
2017-05-19T14:26:16.826Z,25.8
2017-05-19T14:27:19.681Z,25.8
2017-05-19T14:29:26.201Z,25.7
2017-05-19T14:30:28.782Z,25.7
2017-05-19T14:31:32.133Z,25.7
2017-05-19T14:32:34.846Z,25.7
2017-05-19T14:33:38.192Z,25.8
2017-05-19T14:34:41.159Z,25.8
2017-05-19T14:35:44.572Z,25.8